Airfield :
LOGIN :

Register | Disclaimer

   EN    FR    IT 

 










Legend :    VFR   Marginal VFR   IFR   Intensive IFR   Very Intensive IFR
Visi :
Ceiling :
>= 8 km
>= 3000ft
5 to 8 km
1000 to 3000 ft
1500m to 5 km
500 to 1000 ft
800 to 1500m
200 to 500 ft
< 800m
< 200 ft
Symbols :   Thunderstorms  Fog  Heavy snow  Heavy precipitations  Wind > 20 kt
SIGMETs :     Misc.  Thunderstorms  Icing  Turbulence  Mountain Waves  Volcanic Ashes






- Airport Elevation : 2265 ft
- IATA code : CZL


DABC - Mohamed Boudiaf Int. Constantine

CURRENT METAR :
  • 271700Z 36007KT 9999 FEW023 15/01 Q1020

EXPIRED METARs :
  • 271630Z 35006KT 9999 FEW023 16/01 Q1020
  • 271600Z 35007KT CAVOK 17/00 Q1020
  • 271530Z 33006KT 280V060 CAVOK 17/00 Q1020
  • 271500Z 36004KT CAVOK 17/01 Q1020
  • 271430Z 04005KT 350V080 9999 FEW030 17/01 Q1020

TAF TAF DABC
Valid from the 27 at 12:00 until the 28 at 12:00 UTC


271100Z 2712/2812 29008KT 9999 FEW030
BECMG 2719/2721 19004KT



MET'MAP, your aeronautical weather chart ! - Copyright ORBIFLY December 2007 - Disclaimer

ORBIFLY MET'MAP TEAM :

Programming & Development : Alexandra Zaïnal
Concept & original design : Baudouin d'Aumeries
Assistance for programming : Marc-Olivier Méhu
Technical & hardware support : Manuel Goepfert

Contact : metmap@orbifly.com




SOURCES & CREDITS :

   NOAA